UAL456 KLAX-KSFO
Flight info
| Callsign | UAL456 |
|---|---|
| Flight time | 0h 50m |
| Altitude | 38000 |
| Route | SUMMR2 STOKD SERFR SERFR4 |
| Aircraft | A320/M-SDE3FGHIRWY/LB1 |
Departure
| Time | 2026-05-04 22:18 |
|---|---|
| Airport | Los Angeles International Airport (KLAX) |
Arrival
| Time | 2026-05-04 23:09 |
|---|---|
| Airport | San Francisco International Airport (KSFO) |
| Time | Latitude | Longitude | Altitude | Speed | Heading |
|---|---|---|---|---|---|
| 2026-05-04 22:03 | 33.94640 | -118.40651 | 93 ft | 0 kts | 263° |
| 2026-05-04 22:11 | 33.94642 | -118.40631 | 93 ft | 4 kts | 263° |
| 2026-05-04 22:12 | 33.94644 | -118.40606 | 93 ft | 4 kts | 286° |
| 2026-05-04 22:12 | 33.94631 | -118.40585 | 93 ft | 4 kts | 336° |
| 2026-05-04 22:12 | 33.94607 | -118.40576 | 92 ft | 4 kts | 346° |
| 2026-05-04 22:12 | 33.94609 | -118.40577 | 92 ft | 4 kts | 342° |
| 2026-05-04 22:13 | 33.94632 | -118.40584 | 93 ft | 2 kts | 353° |
| 2026-05-04 22:13 | 33.94634 | -118.40584 | 93 ft | 0 kts | 353° |
| 2026-05-04 22:14 | 33.94635 | -118.40585 | 93 ft | 1 kts | 353° |
| 2026-05-04 22:14 | 33.94658 | -118.40588 | 95 ft | 6 kts | 353° |
| 2026-05-04 22:15 | 33.94709 | -118.40595 | 93 ft | 9 kts | 354° |
| 2026-05-04 22:15 | 33.94775 | -118.40592 | 93 ft | 11 kts | 5° |
| 2026-05-04 22:15 | 33.94851 | -118.40601 | 94 ft | 10 kts | 11° |
| 2026-05-04 22:15 | 33.94871 | -118.40527 | 94 ft | 11 kts | 84° |
| 2026-05-04 22:16 | 33.94882 | -118.40422 | 95 ft | 14 kts | 83° |
| 2026-05-04 22:16 | 33.94890 | -118.40338 | 96 ft | 16 kts | 83° |
| 2026-05-04 22:16 | 33.94905 | -118.40205 | 96 ft | 13 kts | 78° |
| 2026-05-04 22:16 | 33.94981 | -118.40174 | 99 ft | 9 kts | 350° |
| 2026-05-04 22:17 | 33.95012 | -118.40206 | 99 ft | 9 kts | 290° |
| 2026-05-04 22:17 | 33.95000 | -118.40361 | 98 ft | 28 kts | 262° |
| 2026-05-04 22:17 | 33.94970 | -118.40655 | 97 ft | 74 kts | 263° |
| 2026-05-04 22:17 | 33.94883 | -118.41501 | 97 ft | 127 kts | 263° |
| 2026-05-04 22:18 | 33.94755 | -118.42675 | 423 ft | 143 kts | 262° |
| 2026-05-04 22:18 | 33.94618 | -118.43872 | 1054 ft | 146 kts | 262° |
| 2026-05-04 22:18 | 33.94502 | -118.45096 | 1698 ft | 148 kts | 262° |
| 2026-05-04 22:18 | 33.94385 | -118.46357 | 2158 ft | 160 kts | 262° |
| 2026-05-04 22:19 | 33.94300 | -118.47783 | 2423 ft | 182 kts | 266° |
| 2026-05-04 22:19 | 33.94249 | -118.49395 | 2720 ft | 202 kts | 266° |
| 2026-05-04 22:19 | 33.94195 | -118.51172 | 3075 ft | 224 kts | 265° |
| 2026-05-04 22:19 | 33.94073 | -118.53126 | 3663 ft | 242 kts | 264° |
| 2026-05-04 22:20 | 33.93915 | -118.55175 | 4559 ft | 247 kts | 264° |
| 2026-05-04 22:20 | 33.93746 | -118.57245 | 5602 ft | 249 kts | 264° |
| 2026-05-04 22:20 | 33.93572 | -118.59336 | 6536 ft | 254 kts | 264° |
| 2026-05-04 22:20 | 33.93396 | -118.61475 | 7374 ft | 258 kts | 264° |
| 2026-05-04 22:21 | 33.93221 | -118.63640 | 8290 ft | 262 kts | 264° |
| 2026-05-04 22:21 | 33.93045 | -118.65840 | 9160 ft | 266 kts | 264° |
| 2026-05-04 22:21 | 33.92845 | -118.68060 | 10021 ft | 268 kts | 261° |
| 2026-05-04 22:21 | 33.92529 | -118.70351 | 10384 ft | 289 kts | 263° |
| 2026-05-04 22:22 | 33.92366 | -118.72858 | 10572 ft | 312 kts | 265° |
| 2026-05-04 22:22 | 33.92208 | -118.75528 | 10988 ft | 325 kts | 265° |
| 2026-05-04 22:22 | 33.92034 | -118.78266 | 11628 ft | 330 kts | 264° |
| 2026-05-04 22:22 | 33.91853 | -118.81039 | 11973 ft | 334 kts | 264° |
| 2026-05-04 22:23 | 33.91720 | -118.83825 | 12050 ft | 335 kts | 270° |
| 2026-05-04 22:23 | 33.91803 | -118.86655 | 12613 ft | 339 kts | 270° |
| 2026-05-04 22:23 | 33.91888 | -118.89502 | 13359 ft | 342 kts | 270° |
| 2026-05-04 22:23 | 33.91972 | -118.92340 | 14012 ft | 346 kts | 270° |
| 2026-05-04 22:24 | 33.92057 | -118.95280 | 14649 ft | 348 kts | 270° |
| 2026-05-04 22:24 | 33.92145 | -118.98204 | 15299 ft | 351 kts | 271° |
| 2026-05-04 22:24 | 33.92529 | -119.01119 | 15922 ft | 356 kts | 282° |
| 2026-05-04 22:24 | 33.93430 | -119.03915 | 16550 ft | 363 kts | 294° |
| 2026-05-04 22:25 | 33.94746 | -119.06535 | 17224 ft | 367 kts | 298° |
| 2026-05-04 22:25 | 33.96086 | -119.09113 | 17871 ft | 369 kts | 297° |
| 2026-05-04 22:25 | 33.97467 | -119.11786 | 18518 ft | 372 kts | 297° |
| 2026-05-04 22:25 | 33.98819 | -119.14406 | 19103 ft | 374 kts | 296° |
| 2026-05-04 22:26 | 34.00271 | -119.17075 | 19729 ft | 380 kts | 301° |
| 2026-05-04 22:26 | 34.02050 | -119.19416 | 20354 ft | 389 kts | 311° |
| 2026-05-04 22:26 | 34.04221 | -119.21431 | 20966 ft | 397 kts | 317° |
| 2026-05-04 22:26 | 34.06484 | -119.23364 | 21531 ft | 400 kts | 317° |
| 2026-05-04 22:27 | 34.08758 | -119.25307 | 22097 ft | 402 kts | 316° |
| 2026-05-04 22:27 | 34.11076 | -119.27294 | 22628 ft | 405 kts | 316° |
| 2026-05-04 22:27 | 34.13374 | -119.29270 | 23149 ft | 407 kts | 315° |
| 2026-05-04 22:27 | 34.15685 | -119.31263 | 23669 ft | 410 kts | 315° |
| 2026-05-04 22:28 | 34.18011 | -119.33269 | 24098 ft | 412 kts | 314° |
| 2026-05-04 22:28 | 34.20356 | -119.35292 | 24498 ft | 416 kts | 314° |
| 2026-05-04 22:28 | 34.22719 | -119.37330 | 24880 ft | 419 kts | 314° |
| 2026-05-04 22:28 | 34.25103 | -119.39389 | 25218 ft | 423 kts | 314° |
| 2026-05-04 22:29 | 34.27505 | -119.41464 | 25555 ft | 426 kts | 314° |
| 2026-05-04 22:29 | 34.29927 | -119.43562 | 25891 ft | 429 kts | 314° |
| 2026-05-04 22:29 | 34.32363 | -119.45675 | 26224 ft | 432 kts | 313° |
| 2026-05-04 22:29 | 34.34816 | -119.47802 | 26560 ft | 436 kts | 313° |
| 2026-05-04 22:30 | 34.37290 | -119.49946 | 26893 ft | 439 kts | 313° |
| 2026-05-04 22:30 | 34.39782 | -119.52108 | 27249 ft | 441 kts | 312° |
| 2026-05-04 22:30 | 34.42108 | -119.54474 | 27590 ft | 433 kts | 304° |
| 2026-05-04 22:30 | 34.44219 | -119.57060 | 27963 ft | 433 kts | 303° |
| 2026-05-04 22:31 | 34.46341 | -119.59674 | 28319 ft | 436 kts | 303° |
| 2026-05-04 22:31 | 34.48476 | -119.62303 | 28670 ft | 439 kts | 303° |
| 2026-05-04 22:31 | 34.50622 | -119.64946 | 28928 ft | 441 kts | 303° |
| 2026-05-04 22:31 | 34.52783 | -119.67605 | 29259 ft | 444 kts | 302° |
| 2026-05-04 22:32 | 34.54925 | -119.70242 | 29582 ft | 446 kts | 302° |
| 2026-05-04 22:32 | 34.57110 | -119.72932 | 29953 ft | 448 kts | 302° |
| 2026-05-04 22:32 | 34.59297 | -119.75624 | 30374 ft | 448 kts | 302° |
| 2026-05-04 22:32 | 34.61481 | -119.78315 | 30767 ft | 447 kts | 303° |
| 2026-05-04 22:33 | 34.63660 | -119.81000 | 31199 ft | 446 kts | 302° |
| 2026-05-04 22:33 | 34.65830 | -119.83683 | 31645 ft | 445 kts | 303° |
| 2026-05-04 22:33 | 34.67999 | -119.86370 | 32029 ft | 445 kts | 303° |
| 2026-05-04 22:33 | 34.70164 | -119.89057 | 32421 ft | 445 kts | 303° |
| 2026-05-04 22:34 | 34.72328 | -119.91746 | 32851 ft | 445 kts | 303° |
| 2026-05-04 22:34 | 34.74489 | -119.94432 | 33267 ft | 445 kts | 303° |
| 2026-05-04 22:34 | 34.76652 | -119.97122 | 33658 ft | 445 kts | 303° |
| 2026-05-04 22:34 | 34.78815 | -119.99813 | 34041 ft | 445 kts | 303° |
| 2026-05-04 22:35 | 34.80977 | -120.02496 | 34424 ft | 443 kts | 304° |
| 2026-05-04 22:35 | 34.83133 | -120.05174 | 34744 ft | 443 kts | 304° |
| 2026-05-04 22:35 | 34.85288 | -120.07862 | 34984 ft | 444 kts | 304° |
| 2026-05-04 22:35 | 34.87443 | -120.10557 | 35265 ft | 445 kts | 304° |
| 2026-05-04 22:36 | 34.89602 | -120.13255 | 35574 ft | 445 kts | 304° |
| 2026-05-04 22:36 | 34.91763 | -120.15955 | 35862 ft | 445 kts | 303° |
| 2026-05-04 22:36 | 34.93927 | -120.18666 | 36090 ft | 446 kts | 304° |
| 2026-05-04 22:36 | 34.96091 | -120.21381 | 36372 ft | 447 kts | 304° |
| 2026-05-04 22:37 | 34.98255 | -120.24097 | 36665 ft | 447 kts | 304° |
| 2026-05-04 22:37 | 35.00422 | -120.26812 | 36951 ft | 447 kts | 304° |
| 2026-05-04 22:37 | 35.02591 | -120.29529 | 37229 ft | 447 kts | 304° |
| 2026-05-04 22:37 | 35.04760 | -120.32247 | 37466 ft | 447 kts | 304° |
| 2026-05-04 22:38 | 35.06928 | -120.34968 | 37747 ft | 448 kts | 304° |
| 2026-05-04 22:38 | 35.09103 | -120.37695 | 37969 ft | 449 kts | 305° |
| 2026-05-04 22:38 | 35.11348 | -120.40376 | 38080 ft | 454 kts | 307° |
| 2026-05-04 22:39 | 35.16042 | -120.45603 | 38068 ft | 458 kts | 309° |
| 2026-05-04 22:39 | 35.20810 | -120.50786 | 38064 ft | 459 kts | 309° |
| 2026-05-04 22:40 | 35.25539 | -120.56030 | 38061 ft | 459 kts | 308° |
| 2026-05-04 22:40 | 35.30232 | -120.61325 | 38073 ft | 459 kts | 308° |
| 2026-05-04 22:41 | 35.34916 | -120.66630 | 38059 ft | 459 kts | 308° |
| 2026-05-04 22:41 | 35.39614 | -120.71936 | 38077 ft | 460 kts | 308° |
| 2026-05-04 22:42 | 35.44321 | -120.77250 | 38074 ft | 460 kts | 308° |
| 2026-05-04 22:42 | 35.49087 | -120.82499 | 38098 ft | 466 kts | 314° |
| 2026-05-04 22:43 | 35.54271 | -120.87310 | 38083 ft | 467 kts | 314° |
| 2026-05-04 22:43 | 35.59463 | -120.92126 | 38097 ft | 468 kts | 315° |
| 2026-05-04 22:44 | 35.64647 | -120.96946 | 38106 ft | 468 kts | 315° |
| 2026-05-04 22:44 | 35.69835 | -121.01772 | 38098 ft | 467 kts | 316° |
| 2026-05-04 22:45 | 35.75004 | -121.06599 | 38101 ft | 466 kts | 316° |
| 2026-05-04 22:45 | 35.82741 | -121.13814 | 38084 ft | 464 kts | 316° |
| 2026-05-04 22:46 | 35.87880 | -121.18628 | 38080 ft | 464 kts | 316° |
| 2026-05-04 22:46 | 35.93011 | -121.23444 | 38091 ft | 463 kts | 317° |
| 2026-05-04 22:47 | 35.95570 | -121.25847 | 37847 ft | 461 kts | 317° |
| 2026-05-04 22:47 | 35.98119 | -121.28243 | 37577 ft | 460 kts | 317° |
| 2026-05-04 22:47 | 36.00660 | -121.30638 | 37320 ft | 459 kts | 317° |
| 2026-05-04 22:47 | 36.03193 | -121.33026 | 37084 ft | 458 kts | 317° |
| 2026-05-04 22:48 | 36.05728 | -121.35416 | 36780 ft | 458 kts | 317° |
| 2026-05-04 22:48 | 36.08358 | -121.37663 | 36102 ft | 463 kts | 323° |
| 2026-05-04 22:48 | 36.11091 | -121.39800 | 35331 ft | 466 kts | 323° |
| 2026-05-04 22:48 | 36.13848 | -121.41950 | 34465 ft | 471 kts | 323° |
| 2026-05-04 22:49 | 36.16632 | -121.44117 | 33405 ft | 472 kts | 324° |
| 2026-05-04 22:49 | 36.19384 | -121.46248 | 32453 ft | 462 kts | 324° |
| 2026-05-04 22:49 | 36.22111 | -121.48365 | 31403 ft | 462 kts | 325° |
| 2026-05-04 22:49 | 36.24811 | -121.50469 | 30414 ft | 454 kts | 326° |
| 2026-05-04 22:50 | 36.27476 | -121.52559 | 29209 ft | 455 kts | 326° |
| 2026-05-04 22:50 | 36.30135 | -121.54652 | 28614 ft | 449 kts | 326° |
| 2026-05-04 22:50 | 36.32755 | -121.56717 | 27908 ft | 444 kts | 326° |
| 2026-05-04 22:50 | 36.35356 | -121.58765 | 27213 ft | 441 kts | 326° |
| 2026-05-04 22:51 | 36.37936 | -121.60792 | 26531 ft | 437 kts | 327° |
| 2026-05-04 22:51 | 36.40495 | -121.62800 | 25853 ft | 434 kts | 327° |
| 2026-05-04 22:51 | 36.43040 | -121.64803 | 25187 ft | 431 kts | 329° |
| 2026-05-04 22:51 | 36.45564 | -121.66794 | 24536 ft | 429 kts | 330° |
| 2026-05-04 22:52 | 36.48057 | -121.68758 | 24245 ft | 417 kts | 329° |
| 2026-05-04 22:52 | 36.50464 | -121.70654 | 24067 ft | 404 kts | 330° |
| 2026-05-04 22:52 | 36.52821 | -121.72512 | 23707 ft | 398 kts | 330° |
| 2026-05-04 22:52 | 36.55155 | -121.74353 | 23189 ft | 397 kts | 330° |
| 2026-05-04 22:53 | 36.57476 | -121.76185 | 22702 ft | 394 kts | 329° |
| 2026-05-04 22:53 | 36.59783 | -121.78009 | 22226 ft | 391 kts | 330° |
| 2026-05-04 22:53 | 36.62069 | -121.79823 | 21742 ft | 388 kts | 330° |
| 2026-05-04 22:53 | 36.64321 | -121.81611 | 20918 ft | 381 kts | 330° |
| 2026-05-04 22:54 | 36.66542 | -121.83376 | 20062 ft | 376 kts | 330° |
| 2026-05-04 22:54 | 36.68723 | -121.85108 | 19467 ft | 369 kts | 330° |
| 2026-05-04 22:54 | 36.70897 | -121.86833 | 18947 ft | 370 kts | 329° |
| 2026-05-04 22:54 | 36.73066 | -121.88553 | 18437 ft | 371 kts | 329° |
| 2026-05-04 22:55 | 36.75339 | -121.90082 | 17840 ft | 369 kts | 342° |
| 2026-05-04 22:55 | 36.77810 | -121.90856 | 17251 ft | 365 kts | 349° |
| 2026-05-04 22:55 | 36.80257 | -121.91487 | 16679 ft | 363 kts | 350° |
| 2026-05-04 22:55 | 36.82723 | -121.92112 | 16117 ft | 361 kts | 350° |
| 2026-05-04 22:56 | 36.85169 | -121.92729 | 15698 ft | 354 kts | 349° |
| 2026-05-04 22:56 | 36.87550 | -121.93333 | 15448 ft | 346 kts | 350° |
| 2026-05-04 22:56 | 36.89895 | -121.93932 | 15189 ft | 342 kts | 349° |
| 2026-05-04 22:56 | 36.92215 | -121.94529 | 14710 ft | 339 kts | 349° |
| 2026-05-04 22:57 | 36.94523 | -121.95122 | 14202 ft | 339 kts | 349° |
| 2026-05-04 22:57 | 36.96794 | -121.95924 | 13646 ft | 339 kts | 344° |
| 2026-05-04 22:57 | 36.99039 | -121.96797 | 13107 ft | 337 kts | 344° |
| 2026-05-04 22:57 | 37.01274 | -121.97666 | 12562 ft | 336 kts | 344° |
| 2026-05-04 22:58 | 37.03498 | -121.98534 | 12042 ft | 335 kts | 344° |
| 2026-05-04 22:58 | 37.05723 | -121.99406 | 11512 ft | 335 kts | 343° |
| 2026-05-04 22:58 | 37.07943 | -122.00276 | 10981 ft | 335 kts | 344° |
| 2026-05-04 22:58 | 37.10169 | -122.01148 | 10456 ft | 335 kts | 343° |
| 2026-05-04 22:59 | 37.12359 | -122.02008 | 10291 ft | 324 kts | 344° |
| 2026-05-04 22:59 | 37.13796 | -122.02573 | 10211 ft | 316 kts | 344° |
| 2026-05-04 22:59 | 37.15862 | -122.03382 | 10072 ft | 306 kts | 343° |
| 2026-05-04 22:59 | 37.17874 | -122.04170 | 9960 ft | 301 kts | 343° |
| 2026-05-04 23:00 | 37.19850 | -122.04945 | 9830 ft | 294 kts | 343° |
| 2026-05-04 23:00 | 37.21795 | -122.05706 | 9483 ft | 292 kts | 343° |
| 2026-05-04 23:00 | 37.23717 | -122.06458 | 8986 ft | 287 kts | 343° |
| 2026-05-04 23:00 | 37.25618 | -122.07203 | 8613 ft | 285 kts | 344° |
| 2026-05-04 23:01 | 37.27489 | -122.07936 | 8424 ft | 278 kts | 344° |
| 2026-05-04 23:01 | 37.29331 | -122.08658 | 8144 ft | 276 kts | 344° |
| 2026-05-04 23:01 | 37.31147 | -122.09373 | 7682 ft | 272 kts | 345° |
| 2026-05-04 23:01 | 37.32949 | -122.10086 | 7158 ft | 273 kts | 344° |
| 2026-05-04 23:02 | 37.34746 | -122.10797 | 6966 ft | 268 kts | 343° |
| 2026-05-04 23:02 | 37.36516 | -122.11495 | 6695 ft | 266 kts | 344° |
| 2026-05-04 23:02 | 37.38285 | -122.12179 | 6375 ft | 266 kts | 345° |
| 2026-05-04 23:02 | 37.40044 | -122.12805 | 6009 ft | 259 kts | 346° |
| 2026-05-04 23:03 | 37.41754 | -122.13386 | 5617 ft | 251 kts | 346° |
| 2026-05-04 23:03 | 37.43424 | -122.13947 | 5239 ft | 245 kts | 346° |
| 2026-05-04 23:03 | 37.45051 | -122.14493 | 4860 ft | 239 kts | 345° |
| 2026-05-04 23:03 | 37.46614 | -122.15011 | 4469 ft | 232 kts | 345° |
| 2026-05-04 23:04 | 37.48168 | -122.15517 | 4189 ft | 224 kts | 345° |
| 2026-05-04 23:04 | 37.49656 | -122.16002 | 3912 ft | 224 kts | 344° |
| 2026-05-04 23:04 | 37.51176 | -122.16499 | 3669 ft | 221 kts | 344° |
| 2026-05-04 23:04 | 37.52609 | -122.17054 | 3429 ft | 217 kts | 332° |
| 2026-05-04 23:05 | 37.53815 | -122.18161 | 3179 ft | 216 kts | 310° |
| 2026-05-04 23:05 | 37.54640 | -122.19753 | 2894 ft | 217 kts | 297° |
| 2026-05-04 23:05 | 37.55347 | -122.21437 | 2590 ft | 210 kts | 296° |
| 2026-05-04 23:05 | 37.56005 | -122.23004 | 2323 ft | 200 kts | 296° |
| 2026-05-04 23:06 | 37.56650 | -122.24533 | 2064 ft | 193 kts | 296° |
| 2026-05-04 23:06 | 37.57272 | -122.26011 | 1798 ft | 186 kts | 296° |
| 2026-05-04 23:06 | 37.57846 | -122.27371 | 1580 ft | 171 kts | 295° |
| 2026-05-04 23:06 | 37.58385 | -122.28652 | 1335 ft | 158 kts | 296° |
| 2026-05-04 23:07 | 37.58862 | -122.29784 | 1129 ft | 137 kts | 296° |
| 2026-05-04 23:07 | 37.59303 | -122.30832 | 946 ft | 131 kts | 296° |
| 2026-05-04 23:07 | 37.59728 | -122.31842 | 759 ft | 130 kts | 297° |
| 2026-05-04 23:07 | 37.60146 | -122.32837 | 593 ft | 127 kts | 298° |
| 2026-05-04 23:08 | 37.60560 | -122.33822 | 421 ft | 128 kts | 297° |
| 2026-05-04 23:08 | 37.60977 | -122.34815 | 238 ft | 128 kts | 297° |
| 2026-05-04 23:08 | 37.61389 | -122.35809 | 60 ft | 128 kts | 298° |
| 2026-05-04 23:08 | 37.61773 | -122.36720 | 22 ft | 96 kts | 298° |
| 2026-05-04 23:09 | 37.61998 | -122.37253 | 22 ft | 43 kts | 297° |
| 2026-05-04 23:09 | 37.62106 | -122.37512 | 22 ft | 27 kts | 297° |
| 2026-05-04 23:09 | 37.62156 | -122.37652 | 22 ft | 13 kts | 272° |
| 2026-05-04 23:09 | 37.62113 | -122.37728 | 22 ft | 11 kts | 227° |
| 2026-05-04 23:10 | 37.62080 | -122.37773 | 22 ft | 3 kts | 227° |
| 2026-05-04 23:10 | 37.62078 | -122.37776 | 24 ft | 0 kts | 227° |
| 2026-05-04 23:10 | 37.62074 | -122.37782 | 22 ft | 4 kts | 227° |
| 2026-05-04 23:11 | 37.62043 | -122.37825 | 22 ft | 10 kts | 228° |
| 2026-05-04 23:11 | 37.61990 | -122.37900 | 24 ft | 13 kts | 228° |
| 2026-05-04 23:11 | 37.61933 | -122.37980 | 22 ft | 11 kts | 224° |
| 2026-05-04 23:11 | 37.61866 | -122.38014 | 22 ft | 9 kts | 218° |
| 2026-05-04 23:12 | 37.61838 | -122.38066 | 25 ft | 5 kts | 236° |
| 2026-05-04 23:12 | 37.61826 | -122.38088 | 22 ft | 0 kts | 235° |